Time;durP1;ratioP1;P1;durP2;ratioP2;P2;SDS_P1;SDS_P2;PMS_P1;PMS_P2;Temp;Humidity;BMP_temperature;BMP_pressure;BME280_temperature;BME280_humidity;BME280_pressure;Samples;Min_cycle;Max_cycle;Signal;HPM_P1;HPM_P2
2022/01/05 00:00:10;;;;;;;9.43;2.50;;;25.70;79.30;;;;;;5082432;28;20175;-79
2022/01/05 00:02:39;;;;;;;8.00;1.93;;;25.40;79.50;;;;;;5072700;28;20182;-79
2022/01/05 00:05:08;;;;;;;7.70;1.87;;;25.40;79.50;;;;;;5074138;28;20194;-81
2022/01/05 00:07:36;;;;;;;10.83;2.80;;;25.50;80.40;;;;;;5071878;28;20183;-80
2022/01/05 00:10:03;;;;;;;11.53;2.53;;;25.50;80.80;;;;;;5069806;28;20213;-77
2022/01/05 00:12:31;;;;;;;8.77;2.20;;;25.70;81.00;;;;;;5071966;28;20215;-78
2022/01/05 00:14:58;;;;;;;13.50;2.77;;;25.80;79.80;;;;;;5071500;28;20646;-77
2022/01/05 00:17:25;;;;;;;11.60;3.60;;;25.90;79.40;;;;;;5072126;28;20262;-81
2022/01/05 00:19:53;;;;;;;8.43;3.07;;;25.80;79.40;;;;;;5072303;28;20656;-82
2022/01/05 00:22:20;;;;;;;10.23;2.10;;;25.80;79.30;;;;;;5071924;28;20182;-80
2022/01/05 00:24:53;;;;;;;10.90;2.03;;;25.80;79.80;;;;;;5072337;28;20653;-78
2022/01/05 00:27:21;;;;;;;11.67;2.33;;;26.20;79.40;;;;;;5066441;28;20212;-77
2022/01/05 00:29:48;;;;;;;11.37;2.20;;;26.60;77.00;;;;;;5070248;28;20211;-79
2022/01/05 00:32:15;;;;;;;8.03;1.70;;;26.80;76.20;;;;;;5062092;28;20175;-78
2022/01/05 00:34:43;;;;;;;20.60;3.53;;;26.80;75.20;;;;;;5063124;28;20184;-74
2022/01/05 00:37:10;;;;;;;9.33;2.53;;;26.10;82.30;;;;;;5064482;28;20207;-78
2022/01/05 00:39:37;;;;;;;7.37;1.63;;;24.90;85.70;;;;;;5071700;28;20171;-76
2022/01/05 00:42:05;;;;;;;7.27;1.97;;;24.60;85.60;;;;;;5064246;28;20183;-75
2022/01/05 00:44:33;;;;;;;7.03;1.57;;;24.80;87.00;;;;;;5071692;28;20184;-75
2022/01/05 00:47:00;;;;;;;4.77;1.00;;;24.80;86.60;;;;;;5071926;28;20186;-75
2022/01/05 00:49:28;;;;;;;5.80;1.17;;;24.80;85.10;;;;;;5064211;28;20634;-78
2022/01/05 00:51:56;;;;;;;6.57;1.00;;;24.60;85.40;;;;;;5076567;28;20266;-74
2022/01/05 00:54:23;;;;;;;5.70;1.30;;;24.50;84.80;;;;;;5074709;28;20202;-75
2022/01/05 00:56:50;;;;;;;7.10;1.80;;;24.50;85.70;;;;;;5074872;28;20175;-77
2022/01/05 00:59:18;;;;;;;4.23;1.43;;;24.60;87.00;;;;;;5071241;28;20836;-76
2022/01/05 01:01:45;;;;;;;6.33;1.70;;;24.80;86.30;;;;;;5076882;28;20633;-73
2022/01/05 01:04:12;;;;;;;8.80;1.80;;;25.00;85.60;;;;;;5075095;28;20184;-75
2022/01/05 01:06:40;;;;;;;7.77;2.00;;;25.20;84.10;;;;;;5074859;28;20175;-75
2022/01/05 01:09:08;;;;;;;6.13;1.37;;;25.30;83.70;;;;;;5074962;28;20217;-77
2022/01/05 01:11:36;;;;;;;9.83;1.77;;;25.70;83.80;;;;;;5075059;28;20183;-77
2022/01/05 01:14:03;;;;;;;10.00;2.37;;;26.10;83.20;;;;;;5074515;28;20183;-82
2022/01/05 01:16:31;;;;;;;11.23;2.23;;;26.30;79.90;;;;;;5068229;28;20183;-79
2022/01/05 01:18:58;;;;;;;6.23;1.70;;;26.60;80.50;;;;;;5079794;28;20232;-82
2022/01/05 01:21:25;;;;;;;11.40;2.97;;;26.30;80.90;;;;;;5074712;28;20205;-81
2022/01/05 01:23:56;;;;;;;14.97;3.37;;;26.30;80.60;;;;;;5076527;28;20175;-83
2022/01/05 01:26:29;;;;;;;12.77;3.07;;;26.20;80.70;;;;;;5071465;28;20186;-82
2022/01/05 01:28:57;;;;;;;13.80;2.67;;;26.60;81.00;;;;;;5077962;28;20300;-82
2022/01/05 01:31:25;;;;;;;12.07;2.67;;;26.80;78.30;;;;;;5065457;28;20534;-82
2022/01/05 01:33:53;;;;;;;13.43;3.00;;;26.60;78.60;;;;;;5083585;28;20179;-78
2022/01/05 01:36:20;;;;;;;10.47;2.20;;;26.80;79.10;;;;;;5075059;28;20262;-76
2022/01/05 01:38:47;;;;;;;17.70;2.57;;;26.40;78.30;;;;;;5075517;28;20630;-83
2022/01/05 01:41:15;;;;;;;12.33;2.50;;;26.40;79.90;;;;;;5065175;28;20229;-80
2022/01/05 01:43:42;;;;;;;14.90;2.80;;;26.30;78.50;;;;;;5074392;28;20175;-84
2022/01/05 01:46:09;;;;;;;12.40;2.67;;;26.20;79.40;;;;;;5074027;28;20206;-79
2022/01/05 01:48:37;;;;;;;9.20;2.00;;;25.70;81.00;;;;;;5074771;28;20195;-77
2022/01/05 01:51:04;;;;;;;12.23;3.50;;;24.80;82.90;;;;;;5072852;28;20523;-74
2022/01/05 01:53:32;;;;;;;14.30;2.90;;;24.60;84.90;;;;;;5074503;28;20180;-73
2022/01/05 01:56:03;;;;;;;12.50;2.70;;;24.40;87.00;;;;;;5073320;28;20175;-75
2022/01/05 01:58:35;;;;;;;16.17;3.23;;;24.40;87.90;;;;;;5070343;28;20167;-73
2022/01/05 02:01:03;;;;;;;12.40;2.60;;;24.60;88.30;;;;;;5066631;28;20179;-76
2022/01/05 02:03:31;;;;;;;11.27;2.17;;;24.70;87.60;;;;;;5074307;28;20535;-77
2022/01/05 02:05:59;;;;;;;10.70;2.40;;;24.80;86.30;;;;;;5073045;28;20631;-78
2022/01/05 02:08:26;;;;;;;9.57;1.77;;;25.00;86.00;;;;;;5068272;28;20356;-76
2022/01/05 02:10:54;;;;;;;7.37;1.83;;;25.10;83.40;;;;;;5074027;28;20261;-77
2022/01/05 02:13:21;;;;;;;7.83;1.93;;;25.20;81.80;;;;;;5072683;28;20183;-83
2022/01/05 02:15:48;;;;;;;6.03;1.60;;;25.30;80.80;;;;;;5074049;28;20179;-81
2022/01/05 02:21:03;;;;;;;5.20;1.73;;;25.60;79.30;;;;;;5072350;28;20178;-79
2022/01/05 02:23:30;;;;;;;7.20;2.60;;;25.80;77.70;;;;;;5067869;28;20285;-81
2022/01/05 02:25:57;;;;;;;7.20;3.90;;;25.80;78.70;;;;;;5074203;28;20205;-77
2022/01/05 02:28:28;;;;;;;6.87;1.80;;;26.10;78.80;;;;;;5073475;28;20569;-80
2022/01/05 02:30:57;;;;;;;7.33;2.07;;;26.60;77.70;;;;;;5065716;28;20716;-79
2022/01/05 02:33:25;;;;;;;3.23;1.10;;;26.70;76.00;;;;;;5073667;28;20244;-77
2022/01/05 02:35:53;;;;;;;4.20;1.20;;;26.80;76.00;;;;;;5073580;28;20229;-77
2022/01/05 02:38:22;;;;;;;5.77;0.90;;;26.50;75.10;;;;;;5073464;28;20223;-81
2022/01/05 02:40:51;;;;;;;1.83;1.10;;;26.40;75.50;;;;;;5072090;28;20187;-78
2022/01/05 02:43:19;;;;;;;6.10;1.10;;;26.40;75.10;;;;;;5067850;28;20205;-77
2022/01/05 02:45:46;;;;;;;5.93;1.00;;;26.40;74.60;;;;;;5066523;28;20585;-80
2022/01/05 02:48:14;;;;;;;3.80;0.80;;;26.40;75.80;;;;;;5071562;28;20199;-76
2022/01/05 02:50:41;;;;;;;5.83;1.13;;;26.10;75.90;;;;;;5070771;28;20536;-78
2022/01/05 02:53:09;;;;;;;6.10;1.03;;;25.90;77.20;;;;;;5070192;28;20168;-81
2022/01/05 02:55:36;;;;;;;3.93;1.30;;;25.80;75.80;;;;;;5067265;28;20542;-77
2022/01/05 02:58:04;;;;;;;3.37;0.80;;;25.70;77.60;;;;;;5070299;28;20520;-77
2022/01/05 03:00:31;;;;;;;3.00;0.80;;;25.60;77.70;;;;;;5070112;28;20182;-77
2022/01/05 03:02:58;;;;;;;2.50;0.60;;;25.50;77.70;;;;;;5067290;28;20172;-77
2022/01/05 03:05:26;;;;;;;4.57;1.00;;;25.30;78.60;;;;;;5065252;28;20191;-81
2022/01/05 03:07:53;;;;;;;2.50;0.70;;;25.30;78.80;;;;;;5072273;28;20183;-78
2022/01/05 03:10:21;;;;;;;16.73;14.97;;;25.30;78.90;;;;;;5067356;28;20189;-76
2022/01/05 03:12:49;;;;;;;6.47;3.17;;;25.40;78.70;;;;;;5070385;28;20572;-76
2022/01/05 03:15:17;;;;;;;2.20;1.00;;;25.30;77.70;;;;;;5071408;28;20226;-76
2022/01/05 03:17:44;;;;;;;3.67;1.20;;;25.60;76.80;;;;;;5070384;28;20636;-76
2022/01/05 03:20:13;;;;;;;1.70;0.70;;;25.80;76.10;;;;;;5071234;28;20188;-78
2022/01/05 03:22:42;;;;;;;1.90;0.90;;;25.90;76.10;;;;;;5069667;28;20688;-78
2022/01/05 03:25:18;;;;;;;1.63;0.67;;;25.90;75.20;;;;;;5068915;28;20257;-79
2022/01/05 03:27:47;;;;;;;5.07;1.20;;;25.60;76.10;;;;;;5068745;28;20179;-75
2022/01/05 03:30:17;;;;;;;7.77;1.60;;;25.50;78.90;;;;;;5069881;28;20191;-78
2022/01/05 03:35:34;;;;;;;7.50;1.57;;;24.50;85.90;;;;;;5066400;28;20594;-79
2022/01/05 03:38:02;;;;;;;9.70;2.33;;;24.20;87.50;;;;;;5070758;28;20265;-79
2022/01/05 03:40:30;;;;;;;6.30;1.53;;;24.20;87.90;;;;;;5068924;28;20244;-77
2022/01/05 03:42:58;;;;;;;10.87;1.60;;;24.20;87.90;;;;;;5068010;28;20668;-77
2022/01/05 03:45:26;;;;;;;9.10;1.60;;;24.30;87.50;;;;;;5064784;28;20194;-76
2022/01/05 03:47:53;;;;;;;5.57;1.77;;;24.30;86.10;;;;;;5064557;28;20642;-75
2022/01/05 03:50:20;;;;;;;6.30;1.40;;;24.40;85.80;;;;;;5067937;28;20187;-74
2022/01/05 03:52:47;;;;;;;6.07;1.10;;;24.60;85.70;;;;;;5065761;28;20747;-77
2022/01/05 03:55:15;;;;;;;6.10;1.13;;;24.40;86.70;;;;;;5068453;28;20191;-79
2022/01/05 03:57:42;;;;;;;5.17;1.40;;;24.20;86.40;;;;;;5069903;28;20584;-82
2022/01/05 04:00:10;;;;;;;6.80;0.90;;;24.10;87.10;;;;;;5070425;28;20178;-78
2022/01/05 04:02:38;;;;;;;4.43;0.90;;;23.80;87.80;;;;;;5065536;28;20242;-76
2022/01/05 04:05:05;;;;;;;2.00;0.63;;;23.50;89.00;;;;;;5070085;28;20219;-76
2022/01/05 04:07:33;;;;;;;2.37;0.80;;;23.70;89.50;;;;;;5070870;28;20229;-82
2022/01/05 04:10:00;;;;;;;5.80;1.23;;;23.60;89.30;;;;;;5068664;28;20301;-79
2022/01/05 04:12:28;;;;;;;5.50;1.27;;;23.70;90.10;;;;;;5069443;28;20262;-79
2022/01/05 04:14:55;;;;;;;5.47;1.23;;;23.80;89.90;;;;;;5070757;28;20183;-77
2022/01/05 04:17:22;;;;;;;9.83;1.43;;;23.80;90.10;;;;;;5071679;28;20550;-74
2022/01/05 04:19:50;;;;;;;5.73;1.53;;;23.70;90.50;;;;;;5068772;28;20554;-74
2022/01/05 04:22:17;;;;;;;5.63;1.43;;;23.70;90.40;;;;;;5069626;28;20541;-74
2022/01/05 04:24:45;;;;;;;6.63;1.33;;;23.70;90.40;;;;;;5072274;28;20190;-76
2022/01/05 04:27:12;;;;;;;6.53;1.50;;;23.80;90.30;;;;;;5070949;28;20194;-76
2022/01/05 04:29:39;;;;;;;4.77;1.20;;;23.80;91.40;;;;;;5077793;28;20230;-76
2022/01/05 04:32:07;;;;;;;5.13;1.10;;;23.90;90.20;;;;;;5074680;28;20269;-75
2022/01/05 04:34:34;;;;;;;8.80;1.57;;;23.90;88.00;;;;;;5076236;28;20241;-76
2022/01/05 04:37:01;;;;;;;7.93;2.23;;;24.10;89.60;;;;;;5075295;28;20223;-75
2022/01/05 04:39:29;;;;;;;5.00;1.40;;;24.20;89.10;;;;;;5075939;28;20183;-75
2022/01/05 04:41:56;;;;;;;5.83;1.40;;;24.30;88.50;;;;;;5076110;28;20168;-75
2022/01/05 04:44:27;;;;;;;8.07;1.73;;;24.30;86.50;;;;;;5067000;28;20194;-74
2022/01/05 04:46:54;;;;;;;7.03;2.03;;;24.30;87.00;;;;;;5070341;28;20202;-72
2022/01/05 04:49:22;;;;;;;5.77;1.30;;;24.20;86.50;;;;;;5070244;28;20268;-72
2022/01/05 04:51:50;;;;;;;6.30;1.50;;;24.30;86.90;;;;;;5075522;28;20164;-72
2022/01/05 04:54:18;;;;;;;11.97;1.87;;;24.20;87.30;;;;;;5073746;28;20190;-72
2022/01/05 04:56:45;;;;;;;6.80;1.37;;;24.20;87.60;;;;;;5069056;28;20180;-73
2022/01/05 04:59:13;;;;;;;4.60;1.20;;;24.20;88.20;;;;;;5071706;28;20222;-72
2022/01/05 05:01:40;;;;;;;5.53;1.30;;;24.30;88.00;;;;;;5079525;28;20217;-72
2022/01/05 05:04:08;;;;;;;5.70;1.20;;;24.40;88.10;;;;;;5073184;28;20185;-74
2022/01/05 05:06:35;;;;;;;5.50;1.13;;;24.40;87.50;;;;;;5071899;28;20175;-75
2022/01/05 05:09:02;;;;;;;5.57;1.60;;;24.40;87.80;;;;;;5073642;28;20665;-75
2022/01/05 05:11:30;;;;;;;9.77;1.40;;;24.40;88.40;;;;;;5067079;28;20172;-75
2022/01/05 05:13:58;;;;;;;3.37;1.13;;;24.40;88.30;;;;;;5075717;28;20591;-73
2022/01/05 05:16:25;;;;;;;3.67;1.30;;;24.40;88.50;;;;;;5076838;28;20236;-73
2022/01/05 05:18:52;;;;;;;7.80;1.50;;;24.40;87.40;;;;;;5076726;28;20245;-73
2022/01/05 05:21:20;;;;;;;6.43;1.93;;;24.40;87.90;;;;;;5076902;28;20250;-72
2022/01/05 05:23:47;;;;;;;9.43;1.47;;;24.50;88.70;;;;;;5076767;28;20245;-74
2022/01/05 05:26:15;;;;;;;8.40;2.10;;;24.40;87.60;;;;;;5075720;28;20187;-76
2022/01/05 05:28:42;;;;;;;13.73;2.37;;;24.40;85.80;;;;;;5076327;28;20547;-74
2022/01/05 05:31:10;;;;;;;10.07;2.93;;;24.40;85.40;;;;;;5068385;28;20290;-74
2022/01/05 05:33:37;;;;;;;16.33;2.60;;;24.40;84.70;;;;;;5076244;28;20533;-75
2022/01/05 05:36:05;;;;;;;15.63;3.17;;;24.40;85.20;;;;;;5074770;28;20182;-76
2022/01/05 05:38:33;;;;;;;19.17;3.40;;;24.40;85.00;;;;;;5075056;28;20215;-75
2022/01/05 05:41:01;;;;;;;15.07;2.50;;;24.60;85.10;;;;;;5075446;28;20183;-77
2022/01/05 05:43:28;;;;;;;7.83;1.77;;;24.50;86.00;;;;;;5075241;28;20510;-77
2022/01/05 05:45:56;;;;;;;9.37;1.97;;;24.70;86.00;;;;;;5075850;28;20178;-77
2022/01/05 05:48:23;;;;;;;12.37;2.20;;;24.80;85.90;;;;;;5074959;28;20203;-77
2022/01/05 05:50:50;;;;;;;10.23;1.67;;;24.80;86.50;;;;;;5072813;28;20183;-77
2022/01/05 05:53:18;;;;;;;8.97;2.43;;;24.80;85.50;;;;;;5074791;28;20619;-78
2022/01/05 05:55:47;;;;;;;9.20;1.80;;;24.80;85.80;;;;;;5076064;28;20179;-79
2022/01/05 05:58:15;;;;;;;11.13;1.83;;;24.70;85.40;;;;;;5071652;28;20176;-78
2022/01/05 06:00:42;;;;;;;5.20;1.67;;;24.40;85.80;;;;;;5070383;28;20213;-78
2022/01/05 06:03:09;;;;;;;5.00;1.53;;;24.30;85.60;;;;;;5079978;28;20178;-77
2022/01/05 06:05:37;;;;;;;5.20;1.60;;;24.30;86.30;;;;;;5075651;28;20213;-80
2022/01/05 06:08:05;;;;;;;10.43;1.97;;;24.60;86.00;;;;;;5075176;28;20285;-79
2022/01/05 06:10:33;;;;;;;10.60;2.30;;;24.90;85.50;;;;;;5075335;28;20226;-81
2022/01/05 06:13:00;;;;;;;10.13;1.90;;;25.40;83.40;;;;;;5074410;28;20179;-82
2022/01/05 06:15:28;;;;;;;10.20;2.03;;;25.70;83.10;;;;;;5067374;28;20218;-82
2022/01/05 06:17:55;;;;;;;10.10;1.57;;;25.80;81.60;;;;;;5076275;28;20212;-82
2022/01/05 06:20:22;;;;;;;13.73;1.70;;;25.80;82.80;;;;;;5076432;28;20183;-82
2022/01/05 06:22:50;;;;;;;8.30;1.80;;;25.70;83.00;;;;;;5074564;28;20183;-79
2022/01/05 06:25:17;;;;;;;11.13;2.47;;;25.80;82.10;;;;;;5073882;28;20198;-82
2022/01/05 06:27:45;;;;;;;14.33;2.20;;;26.20;81.70;;;;;;5066785;28;20191;-82
2022/01/05 06:30:12;;;;;;;10.33;2.50;;;26.60;79.20;;;;;;5078170;28;20202;-81
2022/01/05 06:32:46;;;;;;;13.67;2.87;;;26.50;79.50;;;;;;5064528;28;20182;-78
2022/01/05 06:35:15;;;;;;;9.63;2.30;;;26.30;80.40;;;;;;5076807;28;20175;-81
2022/01/05 06:37:43;;;;;;;18.30;3.17;;;26.50;79.10;;;;;;5078894;28;20736;-79
2022/01/05 06:40:10;;;;;;;14.77;4.03;;;25.90;80.90;;;;;;5078947;28;20252;-78
2022/01/05 06:42:38;;;;;;;14.97;3.43;;;25.80;82.10;;;;;;5078684;28;20183;-81
2022/01/05 06:45:09;;;;;;;11.80;2.80;;;25.40;81.80;;;;;;5077306;28;20580;-80
2022/01/05 06:47:36;;;;;;;15.70;3.50;;;25.40;83.10;;;;;;5073052;28;20191;-79
2022/01/05 06:50:04;;;;;;;22.27;3.93;;;25.30;82.00;;;;;;5079050;28;20225;-78
2022/01/05 06:52:32;;;;;;;12.83;3.33;;;25.40;81.30;;;;;;5083693;28;20544;-80
2022/01/05 06:54:59;;;;;;;27.27;6.00;;;25.50;82.10;;;;;;5080742;28;20187;-82
2022/01/05 06:57:27;;;;;;;31.07;13.17;;;25.60;81.00;;;;;;5067833;28;20535;-78
2022/01/05 06:59:55;;;;;;;21.97;4.17;;;25.90;80.10;;;;;;5074342;28;20187;-78
2022/01/05 07:02:22;;;;;;;22.60;4.27;;;26.40;78.00;;;;;;5071478;28;20663;-81
2022/01/05 07:04:50;;;;;;;22.37;4.50;;;27.60;73.50;;;;;;5072261;28;20333;-81
2022/01/05 07:07:18;;;;;;;23.40;4.17;;;28.10;70.50;;;;;;5075313;28;20592;-80
2022/01/05 07:09:45;;;;;;;19.43;4.17;;;29.30;67.30;;;;;;5073168;28;20222;-80
2022/01/05 07:12:13;;;;;;;16.50;3.63;;;29.00;68.20;;;;;;5073824;28;20175;-81
2022/01/05 07:14:40;;;;;;;19.40;4.70;;;28.50;69.60;;;;;;5071908;28;20262;-81
2022/01/05 07:17:08;;;;;;;18.13;4.03;;;28.00;71.30;;;;;;5074050;28;20175;-77
2022/01/05 07:19:36;;;;;;;23.60;5.57;;;27.80;71.10;;;;;;5073993;28;20183;-78
2022/01/05 07:22:03;;;;;;;22.97;4.97;;;27.90;72.70;;;;;;5071631;28;20261;-79
2022/01/05 07:24:31;;;;;;;25.50;4.23;;;28.40;70.70;;;;;;5073333;28;20186;-78
2022/01/05 07:26:58;;;;;;;24.27;4.00;;;27.30;72.60;;;;;;5072857;28;20179;-76
2022/01/05 07:29:25;;;;;;;33.30;5.37;;;26.80;74.80;;;;;;5070596;28;20629;-77
2022/01/05 07:31:53;;;;;;;25.47;4.50;;;26.60;76.00;;;;;;5069781;28;20544;-78
2022/01/05 07:34:20;;;;;;;24.53;5.07;;;26.20;76.80;;;;;;5071757;28;20187;-76
2022/01/05 07:36:47;;;;;;;23.70;4.50;;;26.10;77.40;;;;;;5077729;28;20214;-76
2022/01/05 07:39:15;;;;;;;31.37;5.43;;;26.30;77.90;;;;;;5096727;28;20288;-77
2022/01/05 07:41:42;;;;;;;23.20;4.37;;;26.40;77.60;;;;;;5073372;28;20186;-77
2022/01/05 07:44:09;;;;;;;26.13;5.10;;;26.20;77.30;;;;;;5072217;28;20179;-77
2022/01/05 07:46:37;;;;;;;28.13;4.97;;;25.90;78.40;;;;;;5063132;28;20179;-77
2022/01/05 07:49:05;;;;;;;23.93;5.03;;;25.80;79.50;;;;;;5069875;28;20226;-77
2022/01/05 07:51:33;;;;;;;29.40;5.40;;;25.60;80.00;;;;;;5075012;28;20265;-76
2022/01/05 07:54:01;;;;;;;31.87;5.50;;;25.50;80.60;;;;;;5069106;28;20554;-74
2022/01/05 07:56:29;;;;;;;37.23;6.43;;;25.40;80.00;;;;;;5069589;28;20198;-77
2022/01/05 07:58:57;;;;;;;29.33;5.60;;;25.30;80.60;;;;;;5069617;28;20638;-76
2022/01/05 08:01:24;;;;;;;33.47;5.77;;;25.30;81.00;;;;;;5068742;28;20183;-76
2022/01/05 08:03:52;;;;;;;32.93;5.50;;;25.20;81.10;;;;;;5068332;28;20175;-76
2022/01/05 08:06:20;;;;;;;36.13;5.83;;;25.20;81.00;;;;;;5060308;28;21343;-77
2022/01/05 08:08:47;;;;;;;36.03;6.20;;;25.10;81.00;;;;;;5066877;28;20195;-77
2022/01/05 08:11:15;;;;;;;32.13;5.80;;;25.00;81.50;;;;;;5071867;28;20180;-74
2022/01/05 08:13:43;;;;;;;38.00;6.47;;;24.90;81.50;;;;;;5078586;28;20257;-76
2022/01/05 08:16:11;;;;;;;33.93;6.17;;;24.80;81.70;;;;;;5077930;28;20657;-77
2022/01/05 08:18:38;;;;;;;31.43;5.47;;;24.80;81.90;;;;;;5068068;28;20756;-76
2022/01/05 08:21:06;;;;;;;33.93;5.97;;;24.80;82.10;;;;;;5065989;28;20171;-77
2022/01/05 08:23:35;;;;;;;27.33;5.50;;;24.80;82.00;;;;;;5068565;28;20175;-77
2022/01/05 08:26:04;;;;;;;32.80;8.33;;;24.80;81.90;;;;;;5070430;28;20176;-76
2022/01/05 08:28:32;;;;;;;39.47;7.13;;;24.80;81.80;;;;;;5067625;28;20418;-77
2022/01/05 08:31:00;;;;;;;36.33;6.70;;;24.80;82.10;;;;;;5062609;28;20722;-76
2022/01/05 08:33:27;;;;;;;30.97;5.77;;;24.80;82.20;;;;;;5071143;28;20209;-76
2022/01/05 08:35:55;;;;;;;31.97;5.57;;;24.70;82.90;;;;;;5070314;28;20699;-77
2022/01/05 08:38:22;;;;;;;30.67;5.73;;;24.70;82.40;;;;;;5069495;28;20219;-76
2022/01/05 08:40:50;;;;;;;31.93;6.40;;;24.60;82.70;;;;;;5071412;28;20186;-77
2022/01/05 08:43:17;;;;;;;35.17;6.17;;;24.60;82.90;;;;;;5071608;28;20191;-75
2022/01/05 08:45:45;;;;;;;37.20;6.43;;;24.50;83.30;;;;;;5071326;28;20568;-77
2022/01/05 08:48:13;;;;;;;30.83;5.40;;;24.50;83.10;;;;;;5072095;28;20203;-77
2022/01/05 08:50:41;;;;;;;29.93;6.00;;;24.50;82.90;;;;;;5069961;28;20217;-75
2022/01/05 08:53:09;;;;;;;29.20;5.27;;;24.40;83.10;;;;;;5070161;28;20172;-76
2022/01/05 08:55:45;;;;;;;34.30;6.47;;;24.40;83.40;;;;;;5072460;28;20258;-76
2022/01/05 08:58:14;;;;;;;42.03;5.97;;;24.40;83.50;;;;;;5076588;28;20914;-76
2022/01/05 09:00:42;;;;;;;32.50;5.70;;;24.30;83.80;;;;;;5073585;28;20510;-76
2022/01/05 09:03:13;;;;;;;37.10;6.60;;;24.30;83.60;;;;;;5079960;28;20201;-76
2022/01/05 09:05:40;;;;;;;30.93;6.73;;;24.30;83.60;;;;;;5072269;28;20208;-77
2022/01/05 09:08:07;;;;;;;35.77;6.23;;;24.30;84.00;;;;;;5071537;28;20634;-76
2022/01/05 09:10:35;;;;;;;29.73;6.10;;;24.20;83.90;;;;;;5074547;28;20516;-76
2022/01/05 09:13:02;;;;;;;31.63;6.10;;;24.20;84.20;;;;;;5077187;28;20176;-78
2022/01/05 09:15:32;;;;;;;39.73;7.83;;;24.10;84.50;;;;;;5079469;28;20258;-77
2022/01/05 09:18:00;;;;;;;36.73;7.00;;;24.10;84.30;;;;;;5076163;28;20167;-76
2022/01/05 09:20:27;;;;;;;39.07;7.70;;;24.10;84.40;;;;;;5070823;28;20202;-76
2022/01/05 09:22:56;;;;;;;38.93;6.30;;;24.10;84.60;;;;;;5078621;28;20175;-78
2022/01/05 09:25:24;;;;;;;32.47;5.93;;;24.00;84.60;;;;;;5077031;28;20183;-76
2022/01/05 09:27:52;;;;;;;37.37;5.70;;;24.00;84.90;;;;;;5075321;28;20207;-76
2022/01/05 09:30:22;;;;;;;36.93;5.70;;;24.00;85.00;;;;;;5072385;28;20202;-76
2022/01/05 09:32:50;;;;;;;35.43;6.13;;;24.00;85.00;;;;;;5070923;28;20309;-75
2022/01/05 09:35:21;;;;;;;44.93;6.87;;;24.00;85.20;;;;;;5078236;28;20195;-76
2022/01/05 09:37:55;;;;;;;37.10;5.80;;;24.00;85.10;;;;;;5078809;28;20309;-76
2022/01/05 09:43:09;;;;;;;31.20;6.00;;;24.00;85.20;;;;;;5073365;28;20240;-75
2022/01/05 09:45:38;;;;;;;40.17;6.70;;;24.10;84.90;;;;;;5079892;28;20183;-75
2022/01/05 09:48:28;;;;;;;35.17;7.17;;;24.10;85.10;;;;;;5078167;28;20224;-76
2022/01/05 09:50:59;;;;;;;39.63;7.07;;;24.00;85.20;;;;;;5089009;28;20184;-76
2022/01/05 09:53:27;;;;;;;29.47;6.10;;;24.00;85.30;;;;;;5071377;28;20181;-77
2022/01/05 09:55:55;;;;;;;36.13;6.10;;;24.00;85.60;;;;;;5069938;28;20198;-75
2022/01/05 09:58:24;;;;;;;41.13;7.70;;;23.90;85.30;;;;;;5067819;28;20171;-76
2022/01/05 10:00:52;;;;;;;33.13;6.63;;;24.00;85.20;;;;;;5079179;28;20756;-76
2022/01/05 10:03:22;;;;;;;28.47;5.73;;;23.90;85.30;;;;;;5076260;28;20272;-75
2022/01/05 10:05:49;;;;;;;51.87;7.00;;;24.00;85.00;;;;;;5070496;28;20179;-75
2022/01/05 10:08:17;;;;;;;35.60;7.30;;;24.00;85.20;;;;;;5074771;28;20207;-76
2022/01/05 10:10:45;;;;;;;37.77;6.40;;;24.00;85.50;;;;;;5081268;28;20187;-75
2022/01/05 10:13:12;;;;;;;35.03;5.63;;;24.00;85.50;;;;;;5074507;28;20190;-74
2022/01/05 10:15:40;;;;;;;35.37;6.47;;;24.00;85.70;;;;;;5076621;28;20245;-77
2022/01/05 10:18:16;;;;;;;47.20;7.13;;;24.00;86.00;;;;;;5075474;28;20334;-76
2022/01/05 10:21:06;;;;;;;37.67;6.17;;;24.00;86.00;;;;;;5067885;28;20198;-77
2022/01/05 10:23:37;;;;;;;32.77;5.60;;;24.00;86.20;;;;;;5074562;28;20186;-77
2022/01/05 10:26:32;;;;;;;30.77;5.93;;;24.00;86.40;;;;;;5076668;28;20179;-77
2022/01/05 10:29:25;;;;;;;42.13;6.47;;;24.00;86.40;;;;;;5063640;28;20298;-76
2022/01/05 10:31:56;;;;;;;39.47;6.67;;;24.00;86.50;;;;;;5069733;28;20664;-76
2022/01/05 10:34:28;;;;;;;34.87;5.73;;;23.90;86.60;;;;;;5091188;28;20602;-76
2022/01/05 10:37:06;;;;;;;43.27;6.40;;;23.90;86.80;;;;;;5068494;28;20222;-76
2022/01/05 10:39:37;;;;;;;36.53;6.63;;;23.90;87.00;;;;;;5070454;28;20175;-76
2022/01/05 10:42:06;;;;;;;32.10;5.63;;;23.90;87.30;;;;;;5072643;28;20626;-76
2022/01/05 10:44:34;;;;;;;34.10;6.30;;;23.80;87.10;;;;;;5072883;28;20649;-76
2022/01/05 10:47:05;;;;;;;34.23;5.90;;;23.80;87.20;;;;;;5080235;28;20163;-76
2022/01/05 10:49:40;;;;;;;40.60;6.60;;;23.90;87.30;;;;;;5072799;28;20320;-76
2022/01/05 10:52:29;;;;;;;39.27;6.10;;;23.90;87.30;;;;;;5072385;28;20167;-77
2022/01/05 10:55:19;;;;;;;32.60;6.63;;;23.80;87.30;;;;;;5069741;28;20576;-76
2022/01/05 10:58:06;;;;;;;40.13;6.33;;;23.80;87.20;;;;;;5067865;28;20203;-77
2022/01/05 11:00:39;;;;;;;38.73;6.47;;;23.80;86.40;;;;;;5070601;28;20182;-76
2022/01/05 11:03:41;;;;;;;40.20;5.67;;;23.90;86.70;;;;;;5079221;28;20194;-77
2022/01/05 11:06:14;;;;;;;32.10;5.87;;;23.90;87.20;;;;;;5078536;28;20518;-76
2022/01/05 11:08:52;;;;;;;33.97;6.20;;;23.90;87.00;;;;;;5076759;28;20198;-75
2022/01/05 11:11:46;;;;;;;35.00;5.47;;;23.90;87.10;;;;;;5078728;28;20182;-76
2022/01/05 11:14:34;;;;;;;33.80;6.03;;;23.90;87.20;;;;;;5072028;28;20179;-75
2022/01/05 11:17:05;;;;;;;31.63;6.10;;;23.90;87.30;;;;;;5072403;28;20174;-77
2022/01/05 11:19:38;;;;;;;36.63;4.93;;;23.90;87.00;;;;;;5072860;28;20187;-76
2022/01/05 11:22:16;;;;;;;30.90;5.67;;;23.90;86.90;;;;;;5072349;28;20190;-75
2022/01/05 11:24:51;;;;;;;38.30;5.63;;;23.90;86.70;;;;;;5072588;28;20653;-76
2022/01/05 11:27:27;;;;;;;37.47;5.70;;;24.00;86.70;;;;;;5071490;28;20307;-75
2022/01/05 11:29:56;;;;;;;36.13;6.23;;;24.00;86.80;;;;;;5070823;28;20260;-77
2022/01/05 11:32:30;;;;;;;33.07;5.87;;;24.00;86.80;;;;;;5069958;28;20262;-75
2022/01/05 11:34:58;;;;;;;29.47;5.87;;;24.00;86.80;;;;;;5070948;28;20571;-76
2022/01/05 11:37:25;;;;;;;34.83;6.47;;;24.00;86.10;;;;;;5064276;28;20210;-78
2022/01/05 11:39:55;;;;;;;30.50;5.67;;;24.00;86.10;;;;;;5082087;28;20178;-77
2022/01/05 11:42:33;;;;;;;30.30;6.00;;;24.00;86.70;;;;;;5073343;28;20277;-74
2022/01/05 11:45:01;;;;;;;31.87;5.03;;;23.80;87.20;;;;;;5071562;28;20163;-76
2022/01/05 11:47:32;;;;;;;31.47;5.87;;;23.60;88.70;;;;;;5072695;28;20183;-74
2022/01/05 11:50:15;;;;;;;15.87;3.40;;;23.50;89.80;;;;;;5072061;28;20246;-75
2022/01/05 11:53:01;;;;;;;17.73;3.60;;;23.00;90.60;;;;;;5072360;28;20201;-72
2022/01/05 11:55:31;;;;;;;17.73;3.50;;;22.70;91.70;;;;;;5065521;28;20175;-75
2022/01/05 11:58:26;;;;;;;18.87;3.20;;;22.40;92.50;;;;;;5072123;28;20262;-76
2022/01/05 12:01:17;;;;;;;18.30;3.07;;;22.30;93.00;;;;;;5068256;28;20191;-74
2022/01/05 12:03:57;;;;;;;12.57;2.93;;;22.30;93.00;;;;;;5071645;28;20270;-78
2022/01/05 12:06:33;;;;;;;10.80;2.73;;;22.30;93.10;;;;;;5071737;28;20182;-77
2022/01/05 12:09:17;;;;;;;12.10;1.97;;;22.20;93.20;;;;;;5077836;28;20218;-74
2022/01/05 12:11:45;;;;;;;11.33;1.93;;;22.20;92.70;;;;;;5073740;28;20178;-75
2022/01/05 12:14:21;;;;;;;9.50;2.70;;;22.20;92.90;;;;;;5072946;28;20175;-75
2022/01/05 12:17:01;;;;;;;11.93;2.73;;;22.20;93.30;;;;;;5071883;28;20175;-74
2022/01/05 12:19:34;;;;;;;14.73;2.90;;;22.20;92.60;;;;;;5064888;28;20258;-76
2022/01/05 12:22:20;;;;;;;11.27;2.80;;;22.30;93.00;;;;;;5072087;28;20170;-74
2022/01/05 12:25:07;;;;;;;21.13;3.63;;;22.20;92.70;;;;;;5068862;28;20543;-74
2022/01/05 12:27:58;;;;;;;22.17;3.90;;;22.20;92.60;;;;;;5065446;28;20183;-72
2022/01/05 12:30:28;;;;;;;27.53;4.57;;;22.30;92.60;;;;;;5060625;28;20187;-72
2022/01/05 12:33:25;;;;;;;33.17;4.87;;;22.30;92.50;;;;;;5068801;28;20544;-73
2022/01/05 12:35:57;;;;;;;30.40;4.93;;;22.40;92.90;;;;;;5062188;28;20211;-74
2022/01/05 12:38:38;;;;;;;31.03;5.63;;;22.50;92.90;;;;;;5071868;28;20219;-74
2022/01/05 12:41:24;;;;;;;29.80;5.13;;;22.50;92.80;;;;;;5071859;28;20183;-74
2022/01/05 12:43:52;;;;;;;30.70;5.57;;;22.50;93.00;;;;;;5071807;28;20190;-76
2022/01/05 12:46:41;;;;;;;33.10;5.40;;;22.60;93.10;;;;;;5073274;28;20180;-74
2022/01/05 12:49:39;;;;;;;33.07;5.97;;;22.60;93.20;;;;;;5075487;28;20242;-73
2022/01/05 12:52:15;;;;;;;35.03;5.27;;;22.70;93.40;;;;;;5060664;28;20183;-75
2022/01/05 12:54:44;;;;;;;41.73;5.73;;;22.60;93.20;;;;;;5075724;28;20185;-76
2022/01/05 12:57:22;;;;;;;31.83;5.73;;;22.70;93.00;;;;;;5074604;28;20180;-76
2022/01/05 12:59:52;;;;;;;37.97;5.90;;;22.70;93.30;;;;;;5075411;28;20199;-76
2022/01/05 13:02:29;;;;;;;31.60;5.93;;;22.70;93.50;;;;;;5069389;28;20187;-78